KPAO

Palo Alto Airport

Palo Alto, California, USA
METAR KPAO 110147Z 00000KT 10SM SKC 11/09 A3018
Observed Flight Rules
Dec-11 @ 01:47 UTC (38 minutes ago) Visual Flight Rules
Visibility Clouds
10 miles
  • Clear skies
Temperatures Readings
Current 11°C / 52°F
Dewpoint 9°C / 48°F
Humidity 88%
Altimeter 30.18" Hg
Pressure 1022 hPa
Elevation 2
METAR KPAO 110147Z 00000KT 10SM SKC 11/09 A3018
Observed Flight Rules
Dec-11 @ 01:47 UTC
(38 minutes ago)
VFR
Clouds
  • Clear skies
Temperature Dewpoint
11°C / 52°F 9°C / 48°F
Humidity Altimeter Pressure
88% 30.18" Hg 1022 hPa